Terminal Aerodrome Forecast
Issued by NWS Green Bay, WI

Home | Current Version | Previous Version | Text Only | Print | Product List | Glossary On
Versions: 1 2 3 4 5 6 7 8 9 10 11 12 13 14 15 16 17 18 19
000
FTUS43 KGRB 231120
TAFGRB
TAF
KGRB 231120Z 2312/2412 22006KT P6SM SCT050
      TEMPO 2312/2314 BKN050
     FM231700 23006KT P6SM SCT250
     FM240600 20008KT P6SM SCT150
     FM240900 21010KT P6SM BKN150 WS018/25040KT=

USA.gov is the U.S. government's official web portal to all federal, state and local government web resources and services.